createdAt,value
2023-04-05T00:01:59.108Z,12.20
2023-04-05T00:04:29.106Z,13.60
2023-04-05T00:06:59.358Z,11.80
2023-04-05T00:09:28.935Z,14.27
2023-04-05T00:11:58.071Z,9.33
2023-04-05T00:14:27.343Z,9.30
2023-04-05T00:16:55.525Z,10.00
2023-04-05T00:19:23.696Z,12.63
2023-04-05T00:21:54.785Z,9.53
2023-04-05T00:24:24.796Z,9.90
2023-04-05T00:26:53.941Z,12.30
2023-04-05T00:29:22.128Z,12.03
2023-04-05T00:32:10.210Z,14.80
2023-04-05T00:34:39.969Z,11.80
2023-04-05T00:37:09.281Z,10.20
2023-04-05T00:51:06.351Z,13.47
2023-04-05T00:57:09.414Z,10.50
2023-04-05T01:02:49.205Z,12.10
2023-04-05T01:05:33.046Z,12.20
2023-04-05T01:11:26.429Z,10.00
2023-04-05T01:14:08.239Z,8.97
2023-04-05T01:16:45.774Z,10.53
2023-04-05T01:40:44.385Z,11.00
2023-04-05T01:58:39.341Z,10.20
2023-04-05T02:01:09.946Z,9.23
2023-04-05T02:06:33.030Z,7.57
2023-04-05T02:09:04.087Z,11.03
2023-04-05T02:11:35.889Z,11.00
2023-04-05T02:14:11.323Z,8.90
2023-04-05T02:17:09.306Z,8.60
2023-04-05T02:19:54.886Z,10.43
2023-04-05T02:34:59.038Z,10.63
2023-04-05T03:15:59.393Z,10.60
2023-04-05T03:18:30.880Z,9.23
2023-04-05T03:21:03.654Z,11.13
2023-04-05T03:23:48.815Z,15.33
2023-04-05T03:26:40.710Z,11.90
2023-04-05T03:35:46.821Z,9.30
2023-04-05T03:38:19.610Z,12.57
2023-04-05T03:40:57.516Z,10.10
2023-04-05T03:43:30.730Z,9.67
2023-04-05T03:48:58.274Z,11.50
2023-04-05T03:51:49.771Z,12.97
2023-04-05T04:03:11.691Z,13.83
2023-04-05T04:05:46.898Z,15.37
2023-04-05T04:08:30.325Z,10.73
2023-04-05T04:11:00.626Z,12.50
2023-04-05T04:13:31.349Z,13.17
2023-04-05T04:16:00.105Z,13.90
2023-04-05T04:18:29.068Z,11.67
2023-04-05T04:20:58.790Z,13.03
2023-04-05T04:23:29.232Z,12.50
2023-04-05T04:25:58.592Z,9.90
2023-04-05T04:28:28.307Z,15.20
2023-04-05T04:30:57.100Z,12.40
2023-04-05T04:33:26.621Z,12.77
2023-04-05T04:35:55.830Z,12.03
2023-04-05T04:38:26.436Z,15.80
2023-04-05T04:40:58.537Z,16.00
2023-04-05T04:43:29.424Z,14.13
2023-04-05T04:45:58.525Z,14.17
2023-04-05T04:48:26.852Z,13.77
2023-04-05T04:51:09.940Z,16.77
2023-04-05T04:53:39.994Z,14.23
2023-04-05T04:56:11.619Z,11.30
2023-04-05T04:58:40.424Z,14.57
2023-04-05T05:01:11.615Z,12.70
2023-04-05T05:03:40.524Z,19.70
2023-04-05T05:06:10.160Z,15.77
2023-04-05T05:08:38.615Z,18.80
2023-04-05T05:11:09.691Z,17.50
2023-04-05T05:13:37.757Z,17.83
2023-04-05T05:16:07.418Z,12.73
2023-04-05T05:18:35.764Z,13.47
2023-04-05T05:21:03.765Z,14.00
2023-04-05T05:23:31.969Z,12.97
2023-04-05T05:26:00.601Z,12.80
2023-04-05T05:28:30.562Z,14.60
2023-04-05T05:30:58.697Z,16.07
2023-04-05T05:33:27.244Z,14.67
2023-04-05T05:35:56.730Z,16.60
2023-04-05T05:38:25.044Z,14.73
2023-04-05T05:40:57.245Z,17.20
2023-04-05T05:43:25.308Z,13.93
2023-04-05T05:45:54.940Z,16.00
2023-04-05T05:48:23.025Z,19.23
2023-04-05T05:50:51.014Z,15.70
2023-04-05T05:53:19.145Z,15.83
2023-04-05T05:55:47.369Z,14.40
2023-04-05T05:58:16.012Z,16.77
2023-04-05T06:00:44.201Z,14.90
2023-04-05T06:03:13.941Z,18.10
2023-04-05T06:05:43.873Z,16.67
2023-04-05T06:08:11.824Z,15.93
2023-04-05T06:10:40.114Z,13.63
2023-04-05T06:13:08.556Z,15.57
2023-04-05T06:15:37.668Z,18.00
2023-04-05T06:18:05.811Z,18.63
2023-04-05T06:20:35.827Z,17.00
2023-04-05T06:23:03.917Z,15.60
2023-04-05T06:25:32.033Z,15.03
2023-04-05T06:28:00.193Z,15.77
2023-04-05T06:30:28.282Z,18.00
2023-04-05T06:32:56.594Z,16.73
2023-04-05T06:35:26.382Z,16.63
2023-04-05T06:37:55.867Z,16.63
2023-04-05T06:40:23.965Z,16.93
2023-04-05T06:42:52.014Z,17.90
2023-04-05T06:45:20.737Z,18.10
2023-04-05T06:47:48.858Z,16.90
2023-04-05T06:50:16.919Z,16.47
2023-04-05T06:52:44.980Z,16.90
2023-04-05T06:55:46.891Z,16.53
2023-04-05T06:58:15.033Z,14.67
2023-04-05T07:00:55.401Z,13.43
2023-04-05T07:03:23.844Z,19.27
2023-04-05T07:05:53.641Z,15.80
2023-04-05T07:08:22.637Z,17.47
2023-04-05T07:10:57.162Z,19.37
2023-04-05T07:13:25.890Z,19.27
2023-04-05T07:16:00.701Z,15.27
2023-04-05T07:18:30.233Z,17.57
2023-04-05T07:21:02.143Z,16.37
2023-04-05T07:23:30.987Z,16.80
2023-04-05T07:26:05.903Z,16.87
2023-04-05T07:28:35.623Z,17.37
2023-04-05T07:31:04.474Z,16.83
2023-04-05T07:33:32.906Z,15.60
2023-04-05T07:36:01.268Z,16.40
2023-04-05T07:38:30.187Z,17.03
2023-04-05T07:40:58.950Z,17.27
2023-04-05T07:43:28.499Z,21.03
2023-04-05T07:46:03.225Z,18.07
2023-04-05T07:48:31.827Z,17.97
2023-04-05T07:51:05.683Z,17.60
2023-04-05T07:53:34.382Z,19.73
2023-04-05T07:56:05.774Z,16.57
2023-04-05T07:58:40.882Z,17.97
2023-04-05T08:01:10.448Z,17.87
2023-04-05T08:03:40.517Z,20.63
2023-04-05T08:06:12.650Z,15.93
2023-04-05T08:08:41.335Z,16.20
2023-04-05T08:11:11.256Z,17.77
2023-04-05T08:13:42.650Z,15.33
2023-04-05T08:16:15.966Z,19.90
2023-04-05T08:41:25.974Z,17.70
2023-04-05T08:44:03.274Z,18.60
2023-04-05T08:46:33.995Z,20.37
2023-04-05T08:49:23.672Z,19.20
2023-04-05T08:51:52.910Z,19.27
2023-04-05T08:54:21.562Z,24.23
2023-04-05T08:56:55.876Z,22.63
2023-04-05T08:59:27.414Z,20.27
2023-04-05T09:01:58.698Z,19.57
2023-04-05T09:04:32.162Z,20.50
2023-04-05T09:07:03.205Z,16.23
2023-04-05T09:09:37.287Z,19.73
2023-04-05T09:12:08.976Z,18.90
2023-04-05T09:14:39.194Z,15.23
2023-04-05T09:17:07.901Z,16.60
2023-04-05T09:19:36.226Z,13.33
2023-04-05T09:22:07.021Z,14.83
2023-04-05T09:24:40.949Z,13.67
2023-04-05T09:27:12.683Z,13.30
2023-04-05T09:29:42.132Z,14.93
2023-04-05T09:32:11.716Z,15.20
2023-04-05T09:34:43.587Z,12.10
2023-04-05T09:37:16.407Z,16.20
2023-04-05T09:39:45.436Z,15.57
2023-04-05T09:42:16.667Z,15.07
2023-04-05T09:44:57.322Z,13.00
2023-04-05T09:47:31.278Z,14.20
2023-04-05T09:50:00.444Z,15.63
2023-04-05T09:52:32.281Z,16.33
2023-04-05T09:55:03.295Z,15.00
2023-04-05T09:57:38.024Z,13.23
2023-04-05T10:00:10.254Z,12.57
2023-04-05T10:02:39.456Z,16.27
2023-04-05T10:05:09.051Z,13.50
2023-04-05T10:07:37.921Z,13.87
2023-04-05T10:10:06.645Z,11.90
2023-04-05T10:12:41.953Z,14.20
2023-04-05T10:15:11.251Z,12.37
2023-04-05T10:17:49.354Z,13.40
2023-04-05T10:20:20.248Z,13.33
2023-04-05T10:23:02.097Z,12.17
2023-04-05T10:25:43.994Z,12.87
2023-04-05T10:28:30.264Z,14.03
2023-04-05T10:31:06.962Z,12.93
2023-04-05T10:33:42.709Z,14.47
2023-04-05T10:36:18.769Z,13.33
2023-04-05T10:39:00.117Z,12.77
2023-04-05T10:41:28.687Z,14.07
2023-04-05T10:43:59.426Z,14.43
2023-04-05T10:46:28.585Z,12.43
2023-04-05T10:49:05.001Z,13.63
2023-04-05T10:51:35.570Z,11.87
2023-04-05T10:54:04.353Z,12.03
2023-04-05T10:56:33.475Z,9.03
2023-04-05T10:59:03.795Z,9.00
2023-04-05T11:01:34.309Z,4.70
2023-04-05T11:04:13.098Z,5.50
2023-04-05T11:06:41.518Z,4.20
2023-04-05T11:09:15.621Z,5.40
2023-04-05T11:11:45.314Z,7.13
2023-04-05T11:14:22.618Z,5.70
2023-04-05T11:16:53.605Z,4.13
2023-04-05T11:19:22.326Z,3.43
2023-04-05T11:22:02.496Z,3.60
2023-04-05T11:24:58.977Z,4.07
2023-04-05T11:27:28.657Z,6.43
2023-04-05T11:29:59.108Z,6.77
2023-04-05T11:32:41.434Z,6.47
2023-04-05T11:35:14.212Z,2.90
2023-04-05T11:38:07.200Z,3.90
2023-04-05T11:40:36.664Z,3.80
2023-04-05T11:43:07.985Z,3.07
2023-04-05T11:45:39.178Z,3.07
2023-04-05T11:48:10.978Z,3.07
2023-04-05T11:50:41.971Z,4.47
2023-04-05T11:53:12.554Z,3.20
2023-04-05T11:55:42.257Z,3.97
2023-04-05T11:58:14.676Z,5.33
2023-04-05T12:00:46.417Z,4.07
2023-04-05T12:03:15.653Z,4.37
2023-04-05T12:05:51.595Z,3.77
2023-04-05T12:08:20.334Z,2.83
2023-04-05T12:10:56.411Z,4.93
2023-04-05T12:13:31.529Z,4.87
2023-04-05T12:16:02.612Z,3.60
2023-04-05T12:18:33.170Z,2.67
2023-04-05T12:21:04.886Z,4.53
2023-04-05T12:23:35.274Z,3.60
2023-04-05T12:26:04.511Z,3.37
2023-04-05T12:28:54.253Z,3.13
2023-04-05T12:31:40.993Z,4.17
2023-04-05T12:34:10.555Z,3.13
2023-04-05T12:36:40.317Z,2.60
2023-04-05T12:39:11.970Z,2.77
2023-04-05T12:41:40.498Z,2.70
2023-04-05T12:44:14.043Z,5.77
2023-04-05T12:46:45.266Z,6.07
2023-04-05T12:49:14.144Z,4.13
2023-04-05T12:51:46.732Z,2.77
2023-04-05T12:54:17.102Z,2.73
2023-04-05T12:56:45.524Z,3.33
2023-04-05T12:59:14.147Z,2.30
2023-04-05T13:01:45.749Z,2.90
2023-04-05T13:04:16.457Z,3.53
2023-04-05T13:06:48.016Z,2.37
2023-04-05T13:09:16.397Z,3.53
2023-04-05T13:11:44.670Z,4.33
2023-04-05T13:14:12.816Z,2.60
2023-04-05T13:16:41.149Z,4.00
2023-04-05T13:19:11.170Z,3.57
2023-04-05T13:21:39.781Z,3.27
2023-04-05T13:24:08.873Z,3.83
2023-04-05T13:26:38.508Z,6.20
2023-04-05T13:29:07.425Z,4.20
2023-04-05T13:31:36.123Z,4.30
2023-04-05T13:34:04.466Z,3.40
2023-04-05T13:36:34.367Z,7.43
2023-04-05T13:39:02.564Z,3.90
2023-04-05T13:41:30.584Z,4.40
2023-04-05T13:44:01.112Z,3.20
2023-04-05T13:46:34.227Z,4.27
2023-04-05T13:49:02.286Z,3.40
2023-04-05T13:51:34.645Z,6.00
2023-04-05T13:54:06.350Z,5.03
2023-04-05T13:56:35.037Z,3.40
2023-04-05T13:59:17.510Z,3.87
2023-04-05T14:01:45.803Z,3.53
2023-04-05T14:04:14.126Z,4.97
2023-04-05T14:06:42.388Z,3.93
2023-04-05T14:09:12.458Z,3.90
2023-04-05T14:11:41.589Z,5.93
2023-04-05T14:14:10.114Z,4.40
2023-04-05T14:16:45.201Z,3.73
2023-04-05T14:19:18.168Z,4.17
2023-04-05T14:21:47.015Z,4.07
2023-04-05T14:30:28.738Z,3.30
2023-04-05T14:33:00.496Z,4.90
2023-04-05T15:21:02.511Z,2.70
2023-04-05T15:59:39.025Z,2.93
2023-04-05T16:03:15.880Z,3.90
2023-04-05T16:09:15.378Z,4.63
2023-04-05T23:43:42.400Z,7.10
